Time;durP1;ratioP1;P1;durP2;ratioP2;P2;SDS_P1;SDS_P2;PMS_P1;PMS_P2;Temp;Humidity;BMP_temperature;BMP_pressure;BME280_temperature;BME280_humidity;BME280_pressure;Samples;Min_cycle;Max_cycle;Signal;HPM_P1;HPM_P2
2021/04/30 00:02:16;;;;;;;22.65;15.13;;;307.50;2304.00;;;;;;5084489;28;20021;-68
2021/04/30 00:04:41;;;;;;;26.98;16.45;;;307.50;2304.00;;;;;;5076559;28;20091;-67
2021/04/30 00:07:07;;;;;;;17.67;11.88;;;307.40;2304.00;;;;;;5073928;28;20039;-68
2021/04/30 00:09:36;;;;;;;22.48;13.23;;;307.50;2304.00;;;;;;5077959;28;20035;-68
2021/04/30 00:12:03;;;;;;;20.23;11.98;;;307.40;2304.00;;;;;;5075609;28;20064;-66
2021/04/30 00:14:31;;;;;;;18.42;12.23;;;307.40;2304.00;;;;;;5085440;28;20028;-69
2021/04/30 00:16:58;;;;;;;21.00;12.82;;;307.40;2304.00;;;;;;5086001;28;20028;-67
2021/04/30 00:19:25;;;;;;;19.58;12.13;;;307.30;2304.00;;;;;;5084655;28;20052;-68
2021/04/30 00:21:50;;;;;;;17.63;11.27;;;307.30;2304.00;;;;;;5079027;28;20029;-70
2021/04/30 00:24:16;;;;;;;19.05;11.38;;;307.30;2304.00;;;;;;5085735;28;20074;-68
2021/04/30 00:26:42;;;;;;;18.45;11.23;;;307.30;2304.00;;;;;;5090492;28;20020;-68
2021/04/30 00:29:08;;;;;;;22.45;13.60;;;307.30;2304.00;;;;;;5077350;28;20469;-69
2021/04/30 00:31:34;;;;;;;18.98;11.95;;;307.30;2304.00;;;;;;5086268;28;20025;-67
2021/04/30 00:34:02;;;;;;;19.63;12.40;;;307.30;2304.00;;;;;;5088067;28;20028;-67
2021/04/30 00:36:28;;;;;;;17.55;11.63;;;307.30;2304.00;;;;;;5076993;28;20052;-67
2021/04/30 00:38:54;;;;;;;22.70;12.48;;;307.30;2304.00;;;;;;5077764;28;20293;-69
2021/04/30 00:41:20;;;;;;;19.35;11.90;;;307.20;2304.00;;;;;;5076053;28;20377;-67
2021/04/30 00:43:45;;;;;;;20.95;12.73;;;307.30;2304.00;;;;;;5084512;28;20024;-68
2021/04/30 00:46:11;;;;;;;20.73;12.50;;;307.20;2304.00;;;;;;5079238;28;20031;-70
2021/04/30 00:48:39;;;;;;;21.38;12.32;;;307.20;2304.00;;;;;;5085524;28;20052;-70
2021/04/30 00:51:05;;;;;;;20.58;12.40;;;307.20;2304.00;;;;;;5092826;28;20032;-71
2021/04/30 00:53:30;;;;;;;22.05;12.70;;;282.50;2278.40;;;;;;5080150;28;20130;-69
2021/04/30 00:55:56;;;;;;;18.15;10.95;;;307.20;2304.00;;;;;;5079492;28;20118;-68
2021/04/30 00:58:22;;;;;;;16.58;10.57;;;307.20;2304.00;;;;;;5076115;28;20032;-71
2021/04/30 01:00:48;;;;;;;17.30;10.65;;;282.50;2278.40;;;;;;5075505;28;20047;-69
2021/04/30 01:03:14;;;;;;;15.90;11.35;;;282.50;2278.40;;;;;;5091335;28;20028;-68
2021/04/30 01:05:40;;;;;;;19.60;12.57;;;282.50;2278.40;;;;;;5094111;28;20035;-68
2021/04/30 01:08:06;;;;;;;20.80;12.15;;;282.50;2278.40;;;;;;5084263;28;20047;-69
2021/04/30 01:10:33;;;;;;;22.92;12.52;;;282.50;2278.40;;;;;;5079253;28;20059;-69
2021/04/30 01:12:59;;;;;;;19.00;11.40;;;282.50;2278.40;;;;;;5074720;28;20028;-68
2021/04/30 01:15:25;;;;;;;19.35;11.80;;;282.50;2278.40;;;;;;5074035;28;20078;-68
2021/04/30 01:17:51;;;;;;;16.50;10.80;;;307.20;2304.00;;;;;;5083685;28;20032;-68
2021/04/30 01:20:18;;;;;;;17.70;11.23;;;282.50;2278.40;;;;;;5093263;28;20024;-67
2021/04/30 01:22:47;;;;;;;16.95;11.18;;;282.50;2278.40;;;;;;5093783;28;20052;-69
2021/04/30 01:25:16;;;;;;;17.73;11.65;;;282.40;2278.40;;;;;;5093684;28;20383;-68
2021/04/30 01:27:44;;;;;;;22.58;13.18;;;282.50;2278.40;;;;;;5105838;28;20066;-69
2021/04/30 01:30:12;;;;;;;21.80;13.35;;;282.50;2278.40;;;;;;5093495;28;20028;-72
2021/04/30 01:32:38;;;;;;;21.90;12.38;;;282.40;2278.40;;;;;;5084529;28;20384;-69
2021/04/30 01:35:07;;;;;;;19.00;11.60;;;282.50;2278.40;;;;;;5093406;28;20028;-68
2021/04/30 01:37:32;;;;;;;23.80;13.10;;;282.50;2278.40;;;;;;5093143;28;20052;-69
2021/04/30 01:39:58;;;;;;;20.02;11.70;;;282.40;2278.40;;;;;;5093222;28;20052;-70
2021/04/30 01:42:24;;;;;;;19.17;11.75;;;282.40;2278.40;;;;;;5093124;28;20024;-67
2021/04/30 01:44:50;;;;;;;23.42;12.93;;;282.50;2278.40;;;;;;5093521;28;20027;-67
2021/04/30 01:47:17;;;;;;;20.05;12.10;;;282.40;2278.40;;;;;;5093093;28;20020;-70
2021/04/30 01:49:44;;;;;;;17.77;11.40;;;282.40;2278.40;;;;;;5092618;28;20504;-69
2021/04/30 01:52:10;;;;;;;21.95;11.85;;;282.40;2278.40;;;;;;5093443;28;20024;-68
2021/04/30 01:54:37;;;;;;;32.00;17.88;;;282.40;2278.40;;;;;;5093133;28;20052;-69
2021/04/30 01:57:02;;;;;;;20.23;12.10;;;282.40;2278.40;;;;;;5093017;28;20528;-68
2021/04/30 01:59:28;;;;;;;21.00;11.38;;;282.20;2278.40;;;;;;5092635;28;20127;-68
2021/04/30 02:01:54;;;;;;;24.20;13.30;;;282.20;2278.40;;;;;;5093207;28;20024;-68
2021/04/30 02:04:20;;;;;;;15.75;11.18;;;282.20;2278.40;;;;;;5092647;28;20020;-68
2021/04/30 02:06:46;;;;;;;19.92;12.20;;;282.20;2278.40;;;;;;5093107;28;20472;-68
2021/04/30 02:09:12;;;;;;;21.15;11.82;;;282.10;2278.40;;;;;;5092399;28;20058;-67
2021/04/30 02:11:38;;;;;;;20.67;12.07;;;282.10;2278.40;;;;;;5074426;28;20387;-68
2021/04/30 02:14:04;;;;;;;19.05;11.88;;;282.10;2278.40;;;;;;5092639;28;20032;-69
2021/04/30 02:16:31;;;;;;;19.35;11.73;;;282.10;2278.40;;;;;;5092355;28;20460;-68
2021/04/30 02:18:57;;;;;;;18.52;12.32;;;282.10;2278.40;;;;;;5092388;28;20465;-67
2021/04/30 02:21:23;;;;;;;19.42;12.15;;;281.80;2278.40;;;;;;5092345;28;20085;-70
2021/04/30 02:23:49;;;;;;;17.52;11.45;;;281.70;2278.40;;;;;;5092492;28;20091;-69
2021/04/30 02:26:16;;;;;;;21.67;12.93;;;281.70;2278.40;;;;;;5100461;28;20107;-67
2021/04/30 02:28:45;;;;;;;20.05;11.88;;;256.90;2252.80;;;;;;5096306;28;20031;-68
2021/04/30 02:31:15;;;;;;;32.53;19.13;;;281.60;2278.40;;;;;;5092572;28;20381;-67
2021/04/30 02:33:42;;;;;;;24.65;15.80;;;256.90;2252.80;;;;;;5091830;28;20020;-68
2021/04/30 02:36:08;;;;;;;17.35;10.90;;;256.70;2252.80;;;;;;5090647;28;20541;-71
2021/04/30 02:38:34;;;;;;;14.07;9.77;;;256.50;2252.80;;;;;;5092027;28;20028;-70
2021/04/30 02:41:00;;;;;;;17.52;11.75;;;256.50;2252.80;;;;;;5092323;28;20070;-77
2021/04/30 02:43:26;;;;;;;18.80;10.40;;;256.50;2252.80;;;;;;5091748;28;20032;-77
2021/04/30 02:45:52;;;;;;;15.85;9.75;;;256.30;2252.80;;;;;;5092311;28;20032;-67
2021/04/30 02:48:33;;;;;;;15.75;11.13;;;256.20;2252.80;;;;;;5091966;28;20591;-68
2021/04/30 02:51:02;;;;;;;16.92;10.77;;;256.30;2252.80;;;;;;5092215;28;20496;-68
2021/04/30 02:53:28;;;;;;;17.73;11.55;;;256.30;2252.80;;;;;;5091645;28;20028;-68
2021/04/30 02:55:54;;;;;;;19.48;10.38;;;256.40;2252.80;;;;;;5091905;28;20115;-68
2021/04/30 02:58:21;;;;;;;16.85;10.85;;;256.40;2252.80;;;;;;5073522;28;20370;-69
2021/04/30 03:00:47;;;;;;;19.25;10.80;;;256.50;2252.80;;;;;;5091536;28;20093;-68
2021/04/30 03:03:12;;;;;;;16.38;10.27;;;256.50;2252.80;;;;;;5085779;28;20093;-67
2021/04/30 03:05:38;;;;;;;18.70;10.77;;;256.40;2252.80;;;;;;5091964;28;20032;-76
2021/04/30 03:08:04;;;;;;;15.00;9.40;;;256.40;2252.80;;;;;;5091643;28;20024;-69
2021/04/30 03:10:30;;;;;;;15.63;9.73;;;256.40;2252.80;;;;;;5091368;28;20111;-67
2021/04/30 03:12:56;;;;;;;16.98;9.77;;;256.40;2252.80;;;;;;5091419;28;20028;-70
2021/04/30 03:15:22;;;;;;;16.90;10.27;;;256.40;2252.80;;;;;;5091445;28;20062;-76
2021/04/30 03:17:48;;;;;;;15.85;10.20;;;256.40;2252.80;;;;;;5091560;28;20087;-76
2021/04/30 03:20:17;;;;;;;16.48;10.40;;;256.40;2252.80;;;;;;5090970;28;20152;-78
2021/04/30 03:22:43;;;;;;;16.42;9.48;;;256.40;2252.80;;;;;;5078028;28;20020;-68
2021/04/30 03:25:09;;;;;;;13.30;9.13;;;256.50;2252.80;;;;;;5091328;28;20031;-68
2021/04/30 03:27:35;;;;;;;19.55;11.35;;;256.40;2252.80;;;;;;5091481;28;20024;-68
2021/04/30 03:30:01;;;;;;;17.60;10.80;;;256.40;2252.80;;;;;;5091036;28;20024;-68
2021/04/30 03:32:27;;;;;;;17.40;10.57;;;256.40;2252.80;;;;;;5090966;28;20384;-67
2021/04/30 03:34:53;;;;;;;18.92;10.50;;;256.30;2252.80;;;;;;5096369;28;20023;-68
2021/04/30 03:37:21;;;;;;;21.15;11.55;;;256.30;2252.80;;;;;;5096587;28;20563;-68
2021/04/30 03:39:46;;;;;;;17.08;10.40;;;256.30;2252.80;;;;;;5091351;28;20024;-76
2021/04/30 03:42:12;;;;;;;21.38;11.48;;;256.30;2252.80;;;;;;5091263;28;20022;-77
2021/04/30 03:44:37;;;;;;;21.30;12.65;;;256.30;2252.80;;;;;;5090937;28;20016;-68
2021/04/30 03:47:03;;;;;;;20.17;11.57;;;256.40;2252.80;;;;;;5091321;28;20065;-67
2021/04/30 03:49:29;;;;;;;21.85;12.57;;;256.40;2252.80;;;;;;5090600;28;20498;-67
2021/04/30 03:51:55;;;;;;;23.77;13.77;;;256.60;2252.80;;;;;;5091068;28;20069;-70
2021/04/30 03:54:20;;;;;;;19.23;11.98;;;256.70;2252.80;;;;;;5091187;28;20385;-67
2021/04/30 03:56:46;;;;;;;15.60;10.18;;;256.80;2252.80;;;;;;5090891;28;20032;-67
2021/04/30 03:59:12;;;;;;;15.43;9.63;;;256.90;2252.80;;;;;;5090692;28;20032;-67
2021/04/30 04:01:38;;;;;;;17.58;11.43;;;281.70;2278.40;;;;;;5090878;28;20020;-71
2021/04/30 04:04:04;;;;;;;14.73;9.32;;;281.90;2278.40;;;;;;5091127;28;20487;-72
2021/04/30 04:06:29;;;;;;;13.48;8.60;;;282.00;2278.40;;;;;;5090788;28;20024;-67
2021/04/30 04:08:55;;;;;;;12.73;8.63;;;282.00;2278.40;;;;;;5090912;28;20028;-67
2021/04/30 04:11:21;;;;;;;13.93;8.55;;;282.20;2278.40;;;;;;5090942;28;20476;-67
2021/04/30 04:13:47;;;;;;;12.75;8.10;;;282.40;2278.40;;;;;;5076157;28;20031;-67
2021/04/30 04:16:12;;;;;;;12.68;8.25;;;282.50;2278.40;;;;;;5091128;28;20036;-68
2021/04/30 04:18:38;;;;;;;13.68;8.10;;;307.20;2304.00;;;;;;5090617;28;20396;-67
2021/04/30 04:21:04;;;;;;;12.10;8.18;;;307.60;2304.00;;;;;;5090933;28;20054;-68
2021/04/30 04:23:30;;;;;;;12.60;8.85;;;307.80;2304.00;;;;;;5090839;28;20036;-67
2021/04/30 04:25:55;;;;;;;13.82;8.75;;;308.10;2304.00;;;;;;5095749;28;20034;-68
2021/04/30 04:28:21;;;;;;;15.18;8.63;;;308.10;2304.00;;;;;;5097593;28;20416;-68
2021/04/30 04:30:47;;;;;;;13.18;8.98;;;332.90;2329.60;;;;;;5090446;28;20495;-67
2021/04/30 04:33:14;;;;;;;13.10;8.88;;;332.90;2329.60;;;;;;5090491;28;20028;-69
2021/04/30 04:35:39;;;;;;;13.82;8.10;;;333.10;2329.60;;;;;;5090605;28;20030;-67
2021/04/30 04:38:05;;;;;;;11.63;7.80;;;333.30;2329.60;;;;;;5090695;28;20020;-78
2021/04/30 04:40:31;;;;;;;13.95;8.95;;;333.60;2329.60;;;;;;5090474;28;20023;-75
2021/04/30 04:42:57;;;;;;;27.80;16.15;;;358.40;2329.60;;;;;;5090458;28;20020;-69
2021/04/30 04:45:23;;;;;;;18.85;12.20;;;358.40;2329.60;;;;;;5090663;28;20107;-77
2021/04/30 04:47:49;;;;;;;14.98;9.38;;;358.50;2329.60;;;;;;5091865;28;20129;-77
2021/04/30 04:50:15;;;;;;;13.88;8.85;;;358.50;2329.60;;;;;;5094391;28;20032;-80
2021/04/30 04:52:42;;;;;;;12.50;8.63;;;358.50;2329.60;;;;;;5094349;28;20561;-72
2021/04/30 04:55:11;;;;;;;11.55;8.02;;;358.60;2329.60;;;;;;5094381;28;20485;-68
2021/04/30 04:57:37;;;;;;;14.45;9.20;;;358.50;2329.60;;;;;;5094060;28;20511;-68
2021/04/30 05:00:07;;;;;;;12.02;8.05;;;358.70;2329.60;;;;;;5094191;28;20016;-71
2021/04/30 05:02:33;;;;;;;12.68;9.38;;;358.80;2329.60;;;;;;5094517;28;20028;-77
2021/04/30 05:04:59;;;;;;;12.77;8.77;;;358.80;2329.60;;;;;;5094362;28;20050;-68
2021/04/30 05:07:24;;;;;;;17.75;11.15;;;358.50;2329.60;;;;;;5094304;28;20020;-68
2021/04/30 05:09:50;;;;;;;13.20;8.32;;;358.40;2329.60;;;;;;5093733;28;20085;-68
2021/04/30 05:12:16;;;;;;;10.43;7.70;;;358.40;2329.60;;;;;;5094117;28;20028;-77
2021/04/30 05:14:41;;;;;;;14.25;8.30;;;333.70;2329.60;;;;;;5093989;28;20103;-68
2021/04/30 05:17:08;;;;;;;13.20;8.70;;;358.40;2329.60;;;;;;5093458;28;20024;-78
2021/04/30 05:19:33;;;;;;;15.63;9.82;;;358.60;2329.60;;;;;;5093680;28;20069;-69
2021/04/30 05:22:01;;;;;;;12.80;8.70;;;359.00;2329.60;;;;;;5093766;28;20098;-79
2021/04/30 05:24:26;;;;;;;13.85;9.07;;;359.30;2329.60;;;;;;5093909;28;20042;-71
2021/04/30 05:26:52;;;;;;;14.55;9.50;;;384.30;2329.60;;;;;;5105073;28;20031;-72
2021/04/30 05:29:18;;;;;;;11.93;8.60;;;384.80;2329.60;;;;;;5093508;28;20035;-68
2021/04/30 05:31:44;;;;;;;11.93;8.52;;;410.30;2355.20;;;;;;5084133;28;20032;-69
2021/04/30 05:34:10;;;;;;;12.30;8.45;;;435.30;2355.20;;;;;;5093555;28;20133;-69
2021/04/30 05:36:36;;;;;;;11.77;9.00;;;435.50;2355.20;;;;;;5093459;28;20476;-71
2021/04/30 05:39:02;;;;;;;12.05;8.70;;;435.50;2355.20;;;;;;5093127;28;20074;-67
2021/04/30 05:41:28;;;;;;;12.07;8.77;;;435.80;2355.20;;;;;;5093393;28;20028;-69
2021/04/30 05:43:53;;;;;;;12.77;8.18;;;435.90;2355.20;;;;;;5093342;28;20024;-67
2021/04/30 05:46:19;;;;;;;12.38;9.73;;;435.50;2355.20;;;;;;5093244;28;20377;-69
2021/04/30 05:48:45;;;;;;;11.45;8.25;;;436.00;2355.20;;;;;;5092706;28;20075;-70
2021/04/30 05:51:10;;;;;;;10.30;7.38;;;461.20;2380.80;;;;;;5093112;28;20481;-70
2021/04/30 05:53:36;;;;;;;10.07;7.45;;;486.70;2304.00;;;;;;5093326;28;20100;-67
2021/04/30 05:56:02;;;;;;;9.63;6.97;;;487.00;2227.20;;;;;;5093213;28;20020;-68
2021/04/30 05:58:28;;;;;;;10.35;7.72;;;461.50;2227.20;;;;;;5092448;28;20074;-69
2021/04/30 06:00:53;;;;;;;10.95;8.60;;;460.80;2380.80;;;;;;5092878;28;20035;-67
2021/04/30 06:03:19;;;;;;;12.00;8.50;;;435.80;2355.20;;;;;;5092650;28;20020;-68
2021/04/30 06:05:45;;;;;;;11.90;7.90;;;435.50;2355.20;;;;;;5093075;28;20416;-68
2021/04/30 06:08:10;;;;;;;10.02;7.20;;;435.50;2355.20;;;;;;5092727;28;20020;-67
2021/04/30 06:10:36;;;;;;;12.93;6.90;;;435.80;2355.20;;;;;;5092599;28;20021;-67
2021/04/30 06:13:06;;;;;;;8.50;6.72;;;435.90;2355.20;;;;;;5092820;28;20107;-70
2021/04/30 06:15:32;;;;;;;10.02;7.40;;;436.00;2355.20;;;;;;5092846;28;20103;-67
2021/04/30 06:17:58;;;;;;;10.65;7.97;;;487.10;2227.20;;;;;;5092798;28;20052;-67
2021/04/30 06:20:24;;;;;;;11.77;8.07;;;538.20;1996.80;;;;;;5092245;28;20099;-68
2021/04/30 06:22:51;;;;;;;10.52;7.63;;;563.30;1868.80;;;;;;5092970;28;20107;-68
2021/04/30 06:25:16;;;;;;;10.55;7.97;;;563.90;1766.40;;;;;;5092346;28;20028;-68
2021/04/30 06:27:42;;;;;;;11.15;7.60;;;589.20;1740.80;;;;;;5104029;28;20062;-68
2021/04/30 06:30:08;;;;;;;9.50;6.93;;;615.10;1612.80;;;;;;5091976;28;20030;-69
2021/04/30 06:32:35;;;;;;;9.10;7.07;;;614.80;1638.40;;;;;;5092372;28;20032;-68
2021/04/30 06:35:00;;;;;;;9.27;7.30;;;615.10;1561.60;;;;;;5074283;28;20388;-69
2021/04/30 06:37:27;;;;;;;10.55;8.02;;;615.30;1561.60;;;;;;5092057;28;20102;-68
2021/04/30 06:39:53;;;;;;;9.18;7.50;;;665.80;1536.00;;;;;;5092224;28;20032;-68
2021/04/30 06:42:20;;;;;;;9.85;6.88;;;691.50;1433.60;;;;;;5092394;28;20417;-69
2021/04/30 06:44:45;;;;;;;9.75;7.50;;;691.30;1433.60;;;;;;5092232;28;20020;-69
2021/04/30 06:47:11;;;;;;;8.25;6.85;;;666.40;1433.60;;;;;;5092074;28;20532;-69
2021/04/30 06:49:37;;;;;;;9.23;6.65;;;692.00;1382.40;;;;;;5091456;28;20121;-68
2021/04/30 06:52:03;;;;;;;8.70;6.60;;;717.40;1331.20;;;;;;5092200;28;20040;-68
2021/04/30 06:54:29;;;;;;;9.85;6.75;;;742.40;1356.80;;;;;;5091718;28;20503;-68
2021/04/30 06:56:55;;;;;;;10.43;7.70;;;717.10;1356.80;;;;;;5091982;28;20025;-68
2021/04/30 06:59:21;;;;;;;9.10;6.90;;;716.80;1356.80;;;;;;5091371;28;20106;-73
2021/04/30 07:01:47;;;;;;;26.38;20.08;;;691.70;1356.80;;;;;;5091855;28;20020;-74
2021/04/30 07:04:13;;;;;;;21.48;16.67;;;692.10;1331.20;;;;;;5091766;28;20032;-68
2021/04/30 07:06:38;;;;;;;14.70;13.07;;;742.60;1356.80;;;;;;5092388;28;20095;-68
2021/04/30 07:09:05;;;;;;;11.00;8.90;;;768.10;1280.00;;;;;;5091408;28;20517;-69
2021/04/30 07:11:31;;;;;;;13.73;11.30;;;768.60;1254.40;;;;;;5091052;28;20024;-68
2021/04/30 07:13:57;;;;;;;8.10;6.68;;;819.30;1203.20;;;;;;5091468;28;20366;-68
2021/04/30 07:16:23;;;;;;;10.13;7.88;;;794.00;1203.20;;;;;;5091427;28;20105;-68
2021/04/30 07:18:48;;;;;;;11.30;9.45;;;819.30;1177.60;;;;;;5091138;28;20027;-77
2021/04/30 07:21:14;;;;;;;8.45;6.10;;;819.30;1203.20;;;;;;5091517;28;20519;-68
2021/04/30 07:23:40;;;;;;;12.38;9.32;;;819.40;1203.20;;;;;;5091346;28;20016;-69
2021/04/30 07:26:06;;;;;;;9.32;6.68;;;794.50;1203.20;;;;;;5097867;28;20023;-70
2021/04/30 07:28:32;;;;;;;9.98;6.85;;;819.30;1203.20;;;;;;5096149;28;20040;-69
2021/04/30 07:30:58;;;;;;;9.55;6.68;;;794.00;1203.20;;;;;;5091926;28;20024;-68
2021/04/30 07:33:24;;;;;;;8.95;6.40;;;793.60;1228.80;;;;;;5091087;28;20077;-68
2021/04/30 07:35:50;;;;;;;11.27;9.20;;;819.30;1177.60;;;;;;5091008;28;20052;-69
2021/04/30 07:38:17;;;;;;;9.30;6.70;;;819.40;1152.00;;;;;;5091180;28;20547;-71
2021/04/30 07:40:44;;;;;;;9.70;6.63;;;819.20;1177.60;;;;;;5072800;28;20016;-68
2021/04/30 07:43:14;;;;;;;13.85;11.68;;;793.70;1228.80;;;;;;5091402;28;20020;-69
2021/04/30 07:45:42;;;;;;;7.68;6.07;;;794.00;1177.60;;;;;;5091153;28;20028;-68
2021/04/30 07:48:08;;;;;;;9.23;6.78;;;768.40;1203.20;;;;;;5090990;28;20140;-68
2021/04/30 07:50:35;;;;;;;9.27;6.50;;;768.10;1228.80;;;;;;5090834;28;20039;-77
2021/04/30 07:53:01;;;;;;;9.00;6.30;;;768.70;1203.20;;;;;;5091067;28;20028;-68
2021/04/30 07:55:27;;;;;;;8.57;6.25;;;768.70;1203.20;;;;;;5091132;28;20031;-69
2021/04/30 07:57:53;;;;;;;8.50;6.15;;;819.60;1177.60;;;;;;5090239;28;20052;-70
2021/04/30 08:00:19;;;;;;;8.57;6.30;;;845.20;1152.00;;;;;;5090474;28;20020;-69
2021/04/30 08:02:47;;;;;;;7.90;5.68;;;845.20;1152.00;;;;;;5091269;28;20073;-68
2021/04/30 08:05:13;;;;;;;9.07;6.07;;;845.00;1152.00;;;;;;5090777;28;20609;-69
2021/04/30 08:07:40;;;;;;;7.47;5.50;;;820.00;1126.40;;;;;;5090540;28;20099;-79
2021/04/30 08:10:07;;;;;;;8.00;5.45;;;819.80;1126.40;;;;;;5090294;28;20553;-78
2021/04/30 08:12:32;;;;;;;8.73;5.70;;;794.40;1177.60;;;;;;5091122;28;20576;-68
2021/04/30 08:14:58;;;;;;;7.30;5.97;;;793.90;1203.20;;;;;;5090739;28;20406;-67
2021/04/30 08:17:24;;;;;;;9.10;5.70;;;768.90;1177.60;;;;;;5090725;28;20036;-68
2021/04/30 08:19:50;;;;;;;9.13;6.05;;;743.00;1254.40;;;;;;5090640;28;20479;-70
2021/04/30 08:22:15;;;;;;;9.23;5.90;;;743.00;1254.40;;;;;;5093213;28;20021;-73
2021/04/30 08:24:41;;;;;;;8.05;5.43;;;742.40;1305.60;;;;;;5082934;28;20504;-70
2021/04/30 08:27:07;;;;;;;8.20;5.22;;;742.60;1280.00;;;;;;5093297;28;20028;-71
2021/04/30 08:29:33;;;;;;;8.15;5.55;;;742.80;1280.00;;;;;;5076052;28;20039;-70
2021/04/30 08:31:59;;;;;;;8.23;6.00;;;742.80;1305.60;;;;;;5081160;28;20032;-75
2021/04/30 08:34:24;;;;;;;9.65;6.07;;;743.10;1280.00;;;;;;5085280;28;20126;-72
2021/04/30 08:36:50;;;;;;;9.43;5.97;;;743.20;1305.60;;;;;;5075518;28;20059;-71
2021/04/30 08:39:16;;;;;;;7.78;5.30;;;768.10;1280.00;;;;;;5088161;28;20032;-71
2021/04/30 08:41:43;;;;;;;10.63;5.60;;;768.10;1228.80;;;;;;5084866;28;20024;-70
2021/04/30 08:44:09;;;;;;;7.72;5.57;;;742.80;1254.40;;;;;;5090426;28;20074;-70
2021/04/30 08:46:35;;;;;;;8.80;5.53;;;742.90;1254.40;;;;;;5082491;28;20031;-70
2021/04/30 08:49:06;;;;;;;7.47;5.30;;;742.40;1280.00;;;;;;5075887;28;20052;-72
2021/04/30 08:51:32;;;;;;;9.60;5.43;;;742.90;1280.00;;;;;;5077812;28;20036;-69
2021/04/30 08:53:58;;;;;;;11.55;6.78;;;743.10;1254.40;;;;;;5084021;28;20028;-70
2021/04/30 08:56:24;;;;;;;9.30;5.82;;;743.30;1254.40;;;;;;5077785;28;20571;-71
2021/04/30 08:58:51;;;;;;;7.68;5.18;;;743.30;1228.80;;;;;;5073862;28;20036;-75
2021/04/30 09:01:16;;;;;;;8.65;5.03;;;768.90;1203.20;;;;;;5074098;28;20043;-71
2021/04/30 09:03:42;;;;;;;8.65;4.60;;;793.70;1228.80;;;;;;5077639;28;20511;-76
2021/04/30 09:06:09;;;;;;;9.07;5.10;;;768.90;1203.20;;;;;;5075123;28;20028;-75
2021/04/30 09:08:45;;;;;;;6.97;4.32;;;768.90;1203.20;;;;;;5082406;28;20029;-69
2021/04/30 09:11:33;;;;;;;7.93;4.45;;;794.00;1228.80;;;;;;5081932;28;20071;-73
2021/04/30 09:14:20;;;;;;;6.32;4.20;;;794.40;1177.60;;;;;;5074777;28;20021;-70
2021/04/30 09:17:04;;;;;;;6.75;4.30;;;819.30;1152.00;;;;;;5076608;28;20531;-70
2021/04/30 09:19:33;;;;;;;8.82;3.75;;;819.60;1203.20;;;;;;5092540;28;20098;-74
2021/04/30 09:22:00;;;;;;;8.88;3.85;;;819.30;1152.00;;;;;;5089514;28;20074;-70
2021/04/30 09:24:26;;;;;;;5.95;4.13;;;819.30;1152.00;;;;;;5076183;28;20111;-70
2021/04/30 09:26:52;;;;;;;9.95;4.38;;;819.40;1152.00;;;;;;5088633;28;20020;-70
2021/04/30 09:29:20;;;;;;;7.57;4.30;;;794.30;1177.60;;;;;;5090838;28;20028;-69
2021/04/30 09:31:47;;;;;;;7.35;3.88;;;794.00;1203.20;;;;;;5083314;28;20024;-75
2021/04/30 09:34:24;;;;;;;7.50;4.00;;;794.40;1203.20;;;;;;5075640;28;20032;-72
2021/04/30 09:37:02;;;;;;;8.00;4.07;;;794.40;1177.60;;;;;;5079717;28;20028;-69
2021/04/30 09:39:29;;;;;;;6.72;3.85;;;819.50;1152.00;;;;;;5074987;28;20025;-75
2021/04/30 09:42:16;;;;;;;6.95;3.70;;;819.80;1152.00;;;;;;5075349;28;20097;-70
2021/04/30 09:44:47;;;;;;;5.45;3.47;;;845.00;1152.00;;;;;;5091478;28;20095;-69
2021/04/30 09:47:20;;;;;;;8.10;3.50;;;844.90;1126.40;;;;;;5084442;28;20025;-71
2021/04/30 09:49:46;;;;;;;6.97;3.40;;;819.50;1100.80;;;;;;5089908;28;20542;-71
2021/04/30 09:52:12;;;;;;;6.15;3.33;;;793.70;1177.60;;;;;;5092607;28;20039;-82
2021/04/30 09:54:39;;;;;;;5.57;3.20;;;793.80;1177.60;;;;;;5085849;28;20028;-80
2021/04/30 09:57:19;;;;;;;8.00;3.67;;;768.10;1152.00;;;;;;5084731;28;20036;-70
2021/04/30 09:59:57;;;;;;;6.63;3.40;;;743.30;1152.00;;;;;;5076503;28;20024;-70
2021/04/30 10:02:24;;;;;;;9.63;3.58;;;768.20;1152.00;;;;;;5090440;28;20052;-70
2021/04/30 10:04:52;;;;;;;8.43;3.80;;;768.60;1152.00;;;;;;5092732;28;20020;-69
2021/04/30 10:07:32;;;;;;;8.77;3.60;;;793.70;1152.00;;;;;;5094696;28;20712;-69
2021/04/30 10:10:02;;;;;;;5.32;3.40;;;793.80;1152.00;;;;;;5092060;28;20070;-68
2021/04/30 10:12:28;;;;;;;5.80;3.17;;;768.30;1126.40;;;;;;5092658;28;20043;-68
2021/04/30 10:14:55;;;;;;;6.88;3.58;;;768.60;1152.00;;;;;;5092850;28;20020;-76
2021/04/30 10:17:21;;;;;;;7.70;3.50;;;793.70;1177.60;;;;;;5086609;28;20036;-68
2021/04/30 10:19:48;;;;;;;7.78;3.20;;;768.30;1152.00;;;;;;5075461;28;20024;-73
2021/04/30 10:22:20;;;;;;;6.93;3.85;;;743.30;1152.00;;;;;;5087721;28;20032;-68
2021/04/30 10:24:52;;;;;;;8.93;3.83;;;768.00;1177.60;;;;;;5073257;28;20548;-69
2021/04/30 10:27:22;;;;;;;5.95;2.80;;;768.10;1152.00;;;;;;5068460;28;20385;-71
2021/04/30 10:30:17;;;;;;;5.53;2.90;;;768.50;1177.60;;;;;;5085803;28;20027;-69
2021/04/30 10:33:13;;;;;;;5.72;2.20;;;793.70;1126.40;;;;;;5061658;28;20043;-69
2021/04/30 10:35:49;;;;;;;6.60;2.60;;;768.90;1075.20;;;;;;5083962;28;20027;-71
2021/04/30 10:38:27;;;;;;;8.20;2.78;;;793.70;1100.80;;;;;;5140903;22;20531;-67
2021/04/30 10:41:00;;;;;;;4.70;1.85;;;794.20;1126.40;;;;;;5087418;28;20499;-69
2021/04/30 10:43:26;;;;;;;5.15;2.03;;;819.20;1024.00;;;;;;5091021;28;20119;-69
2021/04/30 10:46:01;;;;;;;5.10;2.08;;;794.30;1024.00;;;;;;5079461;28;20477;-69
2021/04/30 10:48:26;;;;;;;6.07;2.13;;;794.40;1024.00;;;;;;5085729;28;20039;-70
2021/04/30 10:51:06;;;;;;;5.78;1.90;;;819.20;998.40;;;;;;5089071;28;20024;-69
2021/04/30 10:53:32;;;;;;;9.77;3.20;;;819.40;998.40;;;;;;5091379;28;20495;-69
2021/04/30 10:55:57;;;;;;;4.05;2.05;;;819.30;1024.00;;;;;;5091769;28;20043;-67
2021/04/30 10:58:35;;;;;;;7.30;2.17;;;819.50;998.40;;;;;;5089836;28;20125;-66
2021/04/30 11:01:39;;;;;;;5.53;2.03;;;819.60;1049.60;;;;;;5089197;28;20023;-70
2021/04/30 11:04:16;;;;;;;5.88;2.20;;;819.80;1024.00;;;;;;5080708;28;20036;-69
2021/04/30 11:06:47;;;;;;;5.65;2.40;;;819.50;1024.00;;;;;;5081904;28;20393;-69
2021/04/30 11:09:31;;;;;;;6.43;2.10;;;819.20;998.40;;;;;;5091160;28;20039;-70
2021/04/30 11:12:00;;;;;;;5.30;2.10;;;794.00;1024.00;;;;;;5088177;28;20024;-72
2021/04/30 11:14:35;;;;;;;5.22;2.40;;;793.90;998.40;;;;;;5082379;28;20024;-69
2021/04/30 11:17:01;;;;;;;5.20;2.20;;;793.70;1049.60;;;;;;5084723;28;21086;-70
2021/04/30 11:19:30;;;;;;;7.97;2.20;;;793.70;1024.00;;;;;;5070927;28;20028;-69
2021/04/30 11:22:13;;;;;;;7.95;2.47;;;794.00;1049.60;;;;;;5086225;28;20052;-70
2021/04/30 11:24:41;;;;;;;6.13;1.90;;;794.50;1049.60;;;;;;5091115;28;20050;-71
2021/04/30 11:27:22;;;;;;;5.32;1.90;;;819.20;998.40;;;;;;5089809;28;20036;-72
2021/04/30 11:29:48;;;;;;;7.65;2.50;;;819.20;972.80;;;;;;5091252;28;20024;-71
2021/04/30 11:32:26;;;;;;;6.88;2.40;;;819.30;998.40;;;;;;5091675;28;20020;-72
2021/04/30 11:34:56;;;;;;;5.28;2.20;;;794.20;1024.00;;;;;;5071649;28;20420;-69
2021/04/30 11:37:22;;;;;;;;;;;794.10;1024.00;;;;;;5071262;28;20127;-69
2021/04/30 11:39:51;;;;;;;8.40;2.30;;;794.20;1049.60;;;;;;5070257;28;19912;-70
2021/04/30 11:42:17;;;;;;;8.70;2.40;;;794.00;1024.00;;;;;;5070317;28;20032;-70
2021/04/30 11:44:44;;;;;;;9.25;2.20;;;794.00;1049.60;;;;;;5070372;28;20054;-70
2021/04/30 11:47:14;;;;;;;4.93;1.90;;;794.20;1049.60;;;;;;5070718;28;20480;-70
2021/04/30 11:49:41;;;;;;;5.88;1.90;;;794.50;1049.60;;;;;;5070270;28;20024;-69
2021/04/30 11:52:11;;;;;;;5.00;2.00;;;819.30;998.40;;;;;;5070526;28;20021;-67
2021/04/30 11:54:39;;;;;;;7.35;2.03;;;819.60;972.80;;;;;;5070961;28;20545;-67
2021/04/30 11:57:07;;;;;;;8.60;1.90;;;819.30;998.40;;;;;;5070331;28;20064;-66
2021/04/30 11:59:35;;;;;;;7.28;2.80;;;794.50;998.40;;;;;;5070021;28;20060;-70
2021/04/30 12:02:02;;;;;;;9.75;3.40;;;794.50;1024.00;;;;;;5070905;28;20032;-68
2021/04/30 12:04:46;;;;;;;5.18;2.00;;;794.30;1049.60;;;;;;5070925;28;20469;-67
2021/04/30 12:07:14;;;;;;;11.63;3.85;;;794.50;1024.00;;;;;;5061158;28;20036;-68
2021/04/30 12:09:41;;;;;;;9.13;2.70;;;794.50;1049.60;;;;;;5070306;28;20074;-71
2021/04/30 12:12:17;;;;;;;8.10;2.10;;;819.30;998.40;;;;;;5070141;28;20023;-67